Time;durP1;ratioP1;P1;durP2;ratioP2;P2;SDS_P1;SDS_P2;PMS_P1;PMS_P2;Temp;Humidity;BMP_temperature;BMP_pressure;BME280_temperature;BME280_humidity;BME280_pressure;Samples;Min_cycle;Max_cycle;Signal;HPM_P1;HPM_P2
2024/03/10 00:02:23;;;;;;;664.93;629.57;;;11.70;1.00;;;;;;5051540;28;20168;-70
2024/03/10 00:04:49;;;;;;;886.80;828.93;;;11.70;1.00;;;;;;5051266;28;20160;-70
2024/03/10 00:07:14;;;;;;;793.30;748.33;;;11.60;1.00;;;;;;5051619;28;20403;-70
2024/03/10 00:09:40;;;;;;;1006.60;943.70;;;11.60;1.00;;;;;;5051494;28;20601;-70
2024/03/10 00:12:06;;;;;;;615.43;585.67;;;11.60;1.00;;;;;;5051494;28;20170;-70
2024/03/10 00:14:32;;;;;;;576.53;548.43;;;11.60;1.00;;;;;;5051299;28;20326;-70
2024/03/10 00:16:57;;;;;;;480.67;456.30;;;11.50;1.00;;;;;;5051523;28;20184;-70
2024/03/10 00:19:25;;;;;;;645.37;611.60;;;11.50;1.00;;;;;;5051268;28;20753;-70
2024/03/10 00:21:51;;;;;;;405.67;385.83;;;11.60;1.00;;;;;;5051665;28;20180;-70
2024/03/10 00:24:17;;;;;;;406.43;386.27;;;11.60;1.00;;;;;;5051307;28;20408;-70
2024/03/10 00:26:43;;;;;;;404.93;385.30;;;11.60;1.00;;;;;;5051522;28;20407;-70
2024/03/10 00:29:09;;;;;;;365.20;347.23;;;11.60;1.00;;;;;;5051243;28;20928;-70
2024/03/10 00:31:35;;;;;;;404.97;384.70;;;11.60;1.00;;;;;;5051345;28;20407;-70
2024/03/10 00:34:00;;;;;;;365.23;347.07;;;11.60;1.00;;;;;;5050991;28;20169;-70
2024/03/10 00:36:26;;;;;;;604.67;573.13;;;11.60;1.00;;;;;;5051343;28;20187;-70
2024/03/10 00:38:52;;;;;;;382.77;363.60;;;11.60;1.00;;;;;;5051388;28;20193;-70
2024/03/10 00:41:18;;;;;;;360.27;342.27;;;11.50;1.00;;;;;;5051440;28;20210;-71
2024/03/10 00:43:43;;;;;;;425.77;403.57;;;11.50;1.00;;;;;;5051034;28;20411;-70
2024/03/10 00:46:09;;;;;;;339.23;322.03;;;11.50;1.00;;;;;;5051255;28;20168;-70
2024/03/10 00:48:35;;;;;;;335.97;318.57;;;11.60;1.00;;;;;;5051094;28;20191;-70
2024/03/10 00:51:01;;;;;;;318.13;301.33;;;11.50;1.00;;;;;;5051097;28;20186;-70
2024/03/10 00:53:27;;;;;;;350.47;333.10;;;11.50;1.00;;;;;;5054573;28;20416;-70
2024/03/10 00:55:54;;;;;;;348.10;330.77;;;11.40;1.00;;;;;;5055183;28;20568;-70
2024/03/10 00:58:20;;;;;;;345.47;327.97;;;11.50;1.00;;;;;;5054882;28;20453;-70
2024/03/10 01:00:46;;;;;;;418.50;397.80;;;11.40;1.00;;;;;;5054989;28;20454;-70
2024/03/10 01:03:12;;;;;;;359.20;341.40;;;11.40;1.00;;;;;;5054696;28;20782;-70
2024/03/10 01:05:38;;;;;;;365.77;347.70;;;11.30;1.00;;;;;;5054843;28;20169;-70
2024/03/10 01:08:04;;;;;;;799.17;754.43;;;11.20;1.00;;;;;;5054805;28;20964;-70
2024/03/10 01:10:29;;;;;;;427.47;406.67;;;11.40;1.00;;;;;;5054801;28;20159;-70
2024/03/10 01:12:55;;;;;;;347.93;330.37;;;11.40;1.00;;;;;;5054683;28;20403;-70
2024/03/10 01:15:24;;;;;;;700.93;664.87;;;11.40;1.00;;;;;;5054415;28;20655;-70
2024/03/10 01:17:50;;;;;;;443.60;422.70;;;11.40;1.00;;;;;;5054574;28;20168;-70
2024/03/10 01:20:16;;;;;;;394.63;375.27;;;11.30;1.00;;;;;;5054419;28;20938;-70
2024/03/10 01:22:42;;;;;;;327.00;310.00;;;11.20;1.00;;;;;;5054670;28;20497;-70
2024/03/10 01:25:08;;;;;;;472.17;449.67;;;11.30;1.00;;;;;;5054306;28;20564;-70
2024/03/10 01:27:35;;;;;;;481.30;458.67;;;11.20;1.00;;;;;;5054524;28;20170;-70
2024/03/10 01:30:00;;;;;;;513.90;489.57;;;11.20;1.00;;;;;;5054363;28;20944;-70
2024/03/10 01:32:26;;;;;;;686.77;651.67;;;11.30;1.00;;;;;;5054280;28;20418;-70
2024/03/10 01:34:53;;;;;;;863.83;815.33;;;11.20;1.00;;;;;;5054252;28;20179;-70
2024/03/10 01:37:18;;;;;;;833.80;786.80;;;11.30;1.00;;;;;;5054272;28;20410;-70
2024/03/10 01:39:44;;;;;;;698.00;661.27;;;11.20;1.00;;;;;;5054086;28;20454;-70
2024/03/10 01:42:11;;;;;;;788.97;744.20;;;11.20;1.00;;;;;;5054210;28;20164;-71
2024/03/10 01:44:36;;;;;;;353.67;336.13;;;11.20;1.00;;;;;;5053991;28;20169;-70
2024/03/10 01:47:02;;;;;;;325.37;308.50;;;11.10;1.00;;;;;;5054096;28;20457;-70
2024/03/10 01:49:29;;;;;;;359.10;341.13;;;11.10;1.00;;;;;;5053984;28;20663;-70
2024/03/10 01:51:56;;;;;;;353.37;335.50;;;11.10;1.00;;;;;;5054037;28;20403;-70
2024/03/10 01:54:25;;;;;;;367.97;349.80;;;11.10;1.00;;;;;;5053674;28;20413;-70
2024/03/10 01:56:51;;;;;;;361.80;343.97;;;11.10;1.00;;;;;;5053947;28;20417;-70
2024/03/10 01:59:17;;;;;;;343.50;325.37;;;11.00;1.00;;;;;;5053579;28;20446;-70
2024/03/10 02:01:46;;;;;;;323.87;307.20;;;11.00;1.00;;;;;;5053727;28;20182;-70
2024/03/10 02:04:14;;;;;;;352.60;334.93;;;11.00;1.00;;;;;;5052746;28;20784;-70
2024/03/10 02:06:43;;;;;;;357.13;339.27;;;10.90;1.00;;;;;;5053721;28;20410;-70
2024/03/10 02:09:16;;;;;;;356.83;338.93;;;10.90;1.00;;;;;;5053713;28;20434;-70
2024/03/10 02:11:42;;;;;;;363.83;345.80;;;10.90;1.00;;;;;;5053663;28;20468;-70
2024/03/10 02:14:09;;;;;;;377.17;358.40;;;10.90;1.00;;;;;;5053281;28;20410;-70
2024/03/10 02:16:34;;;;;;;368.90;350.73;;;10.90;1.00;;;;;;5053568;28;20418;-70
2024/03/10 02:19:00;;;;;;;414.33;394.20;;;10.80;1.00;;;;;;5053409;28;20419;-70
2024/03/10 02:21:27;;;;;;;385.87;367.07;;;10.70;1.00;;;;;;5053385;28;20576;-70
2024/03/10 02:24:11;;;;;;;396.90;377.30;;;10.70;1.00;;;;;;5053138;28;20179;-70
2024/03/10 02:26:41;;;;;;;382.83;363.97;;;10.80;1.00;;;;;;5053379;28;20430;-70
2024/03/10 02:29:18;;;;;;;382.03;363.23;;;10.80;1.00;;;;;;5053468;28;20982;-70
2024/03/10 02:48:13;;;;;;;366.10;347.90;;;11.10;1.00;;;;;;5038149;28;20441;-70
2024/03/10 02:50:40;;;;;;;399.93;380.37;;;11.00;1.00;;;;;;5053044;28;20443;-70
2024/03/10 02:53:05;;;;;;;389.43;370.33;;;11.00;1.00;;;;;;5052939;28;20172;-70
2024/03/10 02:55:34;;;;;;;389.67;370.67;;;11.00;1.00;;;;;;5052550;28;20458;-70
2024/03/10 02:58:04;;;;;;;405.53;385.50;;;10.90;1.00;;;;;;5052419;28;20183;-70
2024/03/10 03:00:34;;;;;;;379.33;361.03;;;10.90;1.00;;;;;;5052699;28;20968;-70
2024/03/10 03:03:03;;;;;;;365.73;347.37;;;10.90;1.00;;;;;;5052623;28;20408;-70
2024/03/10 03:05:29;;;;;;;413.03;392.63;;;10.90;1.00;;;;;;5052492;28;20770;-70
2024/03/10 03:07:55;;;;;;;418.27;397.10;;;10.90;1.00;;;;;;5052616;28;20406;-70
2024/03/10 03:10:21;;;;;;;405.37;385.47;;;10.90;1.00;;;;;;5052369;28;20799;-70
2024/03/10 03:12:47;;;;;;;414.10;393.90;;;10.90;1.00;;;;;;5052617;28;20408;-70
2024/03/10 03:15:15;;;;;;;389.13;369.93;;;10.90;1.00;;;;;;5051190;28;20433;-70
2024/03/10 03:17:45;;;;;;;389.17;370.30;;;10.90;1.00;;;;;;5052499;28;20183;-70
2024/03/10 03:20:15;;;;;;;391.97;372.83;;;10.80;1.00;;;;;;5052283;28;20891;-70
2024/03/10 03:22:45;;;;;;;386.33;367.57;;;10.80;1.00;;;;;;5052272;28;20446;-70
2024/03/10 03:25:11;;;;;;;406.33;386.63;;;10.80;1.00;;;;;;5052000;28;20472;-70
2024/03/10 03:27:38;;;;;;;356.53;338.30;;;10.80;1.00;;;;;;5052150;28;20442;-70
2024/03/10 03:30:06;;;;;;;391.83;372.57;;;10.90;1.00;;;;;;5052201;28;20430;-71
2024/03/10 03:32:33;;;;;;;410.17;390.60;;;10.90;1.00;;;;;;5052249;28;20410;-70
2024/03/10 03:34:58;;;;;;;418.37;398.07;;;10.80;1.00;;;;;;5051858;28;20833;-70
2024/03/10 03:37:24;;;;;;;402.67;383.10;;;10.90;1.00;;;;;;5051986;28;20443;-69
2024/03/10 03:39:50;;;;;;;402.80;383.30;;;10.90;1.00;;;;;;5052114;28;20675;-69
2024/03/10 03:42:16;;;;;;;389.83;370.77;;;11.00;1.00;;;;;;5051877;28;20278;-69
2024/03/10 03:44:44;;;;;;;392.17;372.87;;;10.90;1.00;;;;;;5051639;28;20411;-69
2024/03/10 03:47:10;;;;;;;366.97;348.90;;;11.00;1.00;;;;;;5051983;28;20508;-69
2024/03/10 03:49:36;;;;;;;401.97;382.47;;;10.90;1.00;;;;;;5051799;28;20469;-70
2024/03/10 03:52:02;;;;;;;370.63;352.20;;;11.00;1.00;;;;;;5051693;28;20447;-69
2024/03/10 03:54:30;;;;;;;381.57;363.03;;;10.90;1.00;;;;;;5051523;28;20402;-68
2024/03/10 03:56:56;;;;;;;378.83;360.03;;;10.90;1.00;;;;;;5051673;28;20913;-68
2024/03/10 03:59:22;;;;;;;402.80;382.83;;;10.90;1.00;;;;;;5051362;28;20486;-68
2024/03/10 04:01:47;;;;;;;409.27;389.33;;;10.90;1.00;;;;;;5051694;28;20421;-68
2024/03/10 04:04:13;;;;;;;419.73;399.63;;;10.80;1.00;;;;;;5051401;28;20666;-68
2024/03/10 04:06:40;;;;;;;431.23;409.87;;;10.70;1.00;;;;;;5051613;28;20171;-68
2024/03/10 04:09:05;;;;;;;438.60;417.13;;;10.60;1.00;;;;;;5051459;28;20718;-68
2024/03/10 04:11:31;;;;;;;469.03;446.37;;;10.60;1.00;;;;;;5051490;28;20456;-68
2024/03/10 04:13:57;;;;;;;441.23;420.03;;;10.60;1.00;;;;;;5051265;28;20164;-68
2024/03/10 04:16:22;;;;;;;421.97;401.53;;;10.50;1.00;;;;;;5051478;28;20424;-68
2024/03/10 04:18:49;;;;;;;476.73;453.43;;;10.50;1.00;;;;;;5051468;28;20199;-70
2024/03/10 04:21:14;;;;;;;501.37;477.20;;;10.40;1.00;;;;;;5051307;28;20199;-71
2024/03/10 04:23:40;;;;;;;499.63;475.37;;;10.40;1.00;;;;;;5051152;28;20897;-70
2024/03/10 04:26:09;;;;;;;505.20;480.20;;;10.30;1.00;;;;;;5051552;28;20180;-70
2024/03/10 04:28:38;;;;;;;486.63;463.10;;;10.30;1.00;;;;;;5055626;28;20429;-70
2024/03/10 04:31:04;;;;;;;486.97;463.50;;;10.30;1.00;;;;;;5055848;28;20409;-71
2024/03/10 04:33:29;;;;;;;450.33;428.33;;;10.40;1.00;;;;;;5055494;28;20414;-70
2024/03/10 04:35:55;;;;;;;494.27;470.57;;;10.40;1.00;;;;;;5055757;28;20181;-70
2024/03/10 04:38:20;;;;;;;498.47;474.37;;;10.40;1.00;;;;;;5055451;28;20282;-71
2024/03/10 04:40:46;;;;;;;482.07;458.10;;;10.40;1.00;;;;;;5055392;28;20210;-71
2024/03/10 04:43:12;;;;;;;471.77;449.20;;;10.40;1.00;;;;;;5055399;28;20172;-71
2024/03/10 04:45:37;;;;;;;469.17;446.67;;;10.40;1.00;;;;;;5055102;28;20711;-70
2024/03/10 04:48:03;;;;;;;442.63;421.63;;;10.30;1.00;;;;;;5055189;28;20409;-71
2024/03/10 04:50:29;;;;;;;444.30;422.60;;;10.50;1.00;;;;;;5055236;28;20187;-70
2024/03/10 04:52:57;;;;;;;457.00;435.33;;;10.50;1.00;;;;;;5055087;28;20407;-70
2024/03/10 04:55:23;;;;;;;458.60;436.50;;;10.50;1.00;;;;;;5054920;28;20164;-71
2024/03/10 04:57:49;;;;;;;442.97;421.50;;;10.50;1.00;;;;;;5055051;28;20415;-71
2024/03/10 05:00:18;;;;;;;438.53;417.37;;;10.50;1.00;;;;;;5054715;28;20511;-70
2024/03/10 05:02:47;;;;;;;440.30;418.90;;;10.40;1.00;;;;;;5054890;28;20168;-70
2024/03/10 05:05:13;;;;;;;456.60;434.70;;;10.30;1.00;;;;;;5054715;28;20876;-70
2024/03/10 05:07:39;;;;;;;437.00;415.73;;;10.30;1.00;;;;;;5055046;28;20412;-70
2024/03/10 05:10:06;;;;;;;444.43;422.83;;;10.30;1.00;;;;;;5054887;28;20421;-71
2024/03/10 05:12:31;;;;;;;459.90;438.07;;;10.30;1.00;;;;;;5054789;28;20406;-71
2024/03/10 05:14:57;;;;;;;462.00;439.87;;;10.30;1.00;;;;;;5054526;28;20444;-70
2024/03/10 05:17:22;;;;;;;446.87;424.93;;;10.30;1.00;;;;;;5054647;28;20643;-70
2024/03/10 05:19:48;;;;;;;464.00;441.20;;;10.30;1.00;;;;;;5054474;28;20200;-70
2024/03/10 05:22:14;;;;;;;468.83;446.00;;;10.20;1.00;;;;;;5054614;28;20168;-70
2024/03/10 05:24:42;;;;;;;464.07;441.43;;;10.30;1.00;;;;;;5054409;28;20646;-70
2024/03/10 05:27:09;;;;;;;472.53;450.00;;;10.30;1.00;;;;;;5036717;28;20670;-70
2024/03/10 05:29:36;;;;;;;450.30;428.63;;;10.20;1.00;;;;;;5054366;28;20793;-70
2024/03/10 05:32:05;;;;;;;459.90;436.90;;;10.30;1.00;;;;;;5054351;28;20770;-70
2024/03/10 05:34:32;;;;;;;483.10;459.23;;;10.30;1.00;;;;;;5054138;28;20406;-70
2024/03/10 05:36:58;;;;;;;460.03;437.73;;;10.30;1.00;;;;;;5054292;28;20414;-70
2024/03/10 05:39:24;;;;;;;467.23;444.70;;;10.30;1.00;;;;;;5053181;28;20511;-70
2024/03/10 05:41:50;;;;;;;475.83;452.80;;;10.30;1.00;;;;;;5054200;28;20534;-69
2024/03/10 05:44:15;;;;;;;461.63;439.17;;;10.30;1.00;;;;;;5054495;28;20171;-70
2024/03/10 05:46:43;;;;;;;479.57;456.80;;;10.30;1.00;;;;;;5054196;28;20209;-70
2024/03/10 05:49:09;;;;;;;496.30;472.33;;;10.30;1.00;;;;;;5054181;28;20684;-70
2024/03/10 05:51:34;;;;;;;474.37;451.27;;;10.30;1.00;;;;;;5054277;28;20410;-69
2024/03/10 05:54:00;;;;;;;441.10;419.30;;;10.30;1.00;;;;;;5053755;28;20625;-70
2024/03/10 05:56:26;;;;;;;451.67;429.93;;;10.30;1.00;;;;;;5054177;28;20180;-69
2024/03/10 05:58:51;;;;;;;454.53;432.73;;;10.20;1.00;;;;;;5053749;28;20207;-69
2024/03/10 06:01:23;;;;;;;422.40;401.77;;;10.00;1.00;;;;;;5053770;28;20199;-69
2024/03/10 06:03:51;;;;;;;397.83;378.23;;;10.10;1.00;;;;;;5053711;28;20172;-69
2024/03/10 06:06:17;;;;;;;408.93;389.23;;;10.10;1.00;;;;;;5053937;28;20441;-69
2024/03/10 06:08:43;;;;;;;425.87;405.27;;;10.10;1.00;;;;;;5053700;28;20525;-70
2024/03/10 06:11:09;;;;;;;408.40;388.30;;;9.90;1.00;;;;;;5053681;28;20496;-69
2024/03/10 06:13:34;;;;;;;404.27;384.40;;;9.80;1.00;;;;;;5053266;28;20659;-69
2024/03/10 06:16:02;;;;;;;400.77;381.43;;;9.90;1.00;;;;;;5053599;28;20410;-68
2024/03/10 06:25:22;;;;;;;409.37;389.20;;;9.80;1.00;;;;;;5053717;28;20199;-68
2024/03/10 06:26:52;;;;;;;401.90;382.40;;;9.60;1.00;;;;;;5053379;28;20417;-70
2024/03/10 06:29:18;;;;;;;414.67;394.50;;;9.70;1.00;;;;;;5053519;28;20427;-68
2024/03/10 06:31:44;;;;;;;418.40;398.20;;;9.60;1.00;;;;;;5053468;28;20411;-69
2024/03/10 06:34:10;;;;;;;420.73;400.00;;;10.00;1.00;;;;;;5053099;28;20572;-69
2024/03/10 06:36:36;;;;;;;393.50;374.13;;;9.60;1.00;;;;;;5053563;28;20420;-69
2024/03/10 06:39:03;;;;;;;367.30;349.00;;;9.70;1.00;;;;;;5054718;28;20214;-69
2024/03/10 06:41:29;;;;;;;359.43;341.30;;;9.70;1.00;;;;;;5053007;28;20489;-68
2024/03/10 06:43:55;;;;;;;374.73;356.07;;;9.70;1.00;;;;;;5052957;28;20452;-68
2024/03/10 06:46:21;;;;;;;407.53;387.53;;;9.80;1.00;;;;;;5053158;28;20575;-69
2024/03/10 06:48:46;;;;;;;415.60;394.93;;;9.70;1.00;;;;;;5053092;28;20196;-69
2024/03/10 06:51:12;;;;;;;436.17;414.67;;;9.70;1.00;;;;;;5052881;28;20394;-70
2024/03/10 06:53:38;;;;;;;445.33;423.43;;;9.70;1.00;;;;;;5052752;28;20175;-69
2024/03/10 06:56:04;;;;;;;502.50;478.50;;;9.70;1.00;;;;;;5053206;28;20413;-69
2024/03/10 06:58:30;;;;;;;484.43;460.67;;;9.80;1.00;;;;;;5053526;28;20302;-69
2024/03/10 07:00:56;;;;;;;473.47;450.77;;;10.00;1.00;;;;;;5053555;28;20536;-69
2024/03/10 07:03:22;;;;;;;488.03;464.97;;;10.00;1.00;;;;;;5052838;28;20405;-69
2024/03/10 07:05:47;;;;;;;456.03;434.07;;;10.00;1.00;;;;;;5052689;28;20414;-70
2024/03/10 07:08:15;;;;;;;439.57;418.53;;;10.20;1.20;;;;;;5052771;28;20250;-69
2024/03/10 07:10:41;;;;;;;451.67;429.43;;;10.00;1.00;;;;;;5052612;28;20178;-68
2024/03/10 07:13:10;;;;;;;433.33;412.13;;;10.20;1.00;;;;;;5052692;28;20480;-69
2024/03/10 07:15:36;;;;;;;473.90;450.50;;;10.20;1.00;;;;;;5052469;28;20413;-69
2024/03/10 07:18:04;;;;;;;447.20;425.50;;;10.30;1.00;;;;;;5052804;28;20414;-68
2024/03/10 07:20:31;;;;;;;461.40;438.37;;;10.30;1.00;;;;;;5052589;28;20721;-69
2024/03/10 07:22:56;;;;;;;504.77;480.50;;;10.30;1.00;;;;;;5053245;28;20779;-69
2024/03/10 07:25:25;;;;;;;496.07;472.27;;;10.40;1.00;;;;;;5052142;28;20409;-69
2024/03/10 07:27:53;;;;;;;463.93;441.27;;;10.40;1.00;;;;;;5052694;28;20168;-69
2024/03/10 07:30:19;;;;;;;472.67;450.03;;;10.50;1.00;;;;;;5053048;28;20800;-69
2024/03/10 07:32:45;;;;;;;500.17;475.97;;;10.50;1.00;;;;;;5052854;28;20409;-69
2024/03/10 07:35:12;;;;;;;460.20;437.90;;;10.60;1.00;;;;;;5052834;28;20280;-70
2024/03/10 07:37:38;;;;;;;499.90;475.43;;;10.60;1.00;;;;;;5052293;28;20417;-69
2024/03/10 07:40:24;;;;;;;483.43;460.00;;;10.70;1.00;;;;;;5051994;28;20465;-69
2024/03/10 07:42:49;;;;;;;477.53;455.10;;;10.70;1.00;;;;;;5052400;28;20401;-69
2024/03/10 07:45:18;;;;;;;455.80;433.50;;;10.70;1.00;;;;;;5052069;28;20960;-69
2024/03/10 07:47:46;;;;;;;486.00;462.33;;;10.80;1.00;;;;;;5052462;28;20249;-69
2024/03/10 07:50:13;;;;;;;499.53;475.53;;;10.90;1.00;;;;;;5052014;28;20486;-69
2024/03/10 07:52:40;;;;;;;475.00;452.30;;;10.90;1.00;;;;;;5052061;28;20902;-69
2024/03/10 07:55:06;;;;;;;498.37;474.03;;;10.80;1.00;;;;;;5051850;28;21092;-69
2024/03/10 07:57:33;;;;;;;536.67;510.87;;;10.90;1.00;;;;;;5052121;28;20419;-69
2024/03/10 08:00:00;;;;;;;547.03;520.73;;;10.90;1.00;;;;;;5051589;28;20475;-68
2024/03/10 08:02:26;;;;;;;545.80;518.93;;;10.90;1.00;;;;;;5051574;28;20409;-70
2024/03/10 08:04:51;;;;;;;804.90;758.90;;;10.90;1.00;;;;;;5051627;28;20910;-69
2024/03/10 08:07:18;;;;;;;571.10;542.97;;;10.90;1.00;;;;;;5051931;28;20401;-69
2024/03/10 08:09:43;;;;;;;536.53;509.63;;;11.00;1.00;;;;;;5051801;28;20198;-69
2024/03/10 08:12:11;;;;;;;588.23;559.17;;;11.10;1.00;;;;;;5051917;28;20405;-69
2024/03/10 08:14:38;;;;;;;593.30;563.83;;;11.20;1.00;;;;;;5051350;28;20399;-69
2024/03/10 08:17:04;;;;;;;600.93;571.43;;;11.30;1.00;;;;;;5051969;28;20465;-69
2024/03/10 08:19:30;;;;;;;560.67;533.63;;;11.40;1.00;;;;;;5051425;28;20423;-69
2024/03/10 08:21:56;;;;;;;593.70;564.80;;;11.50;1.00;;;;;;5051679;28;20539;-69
2024/03/10 08:24:23;;;;;;;632.53;601.97;;;11.70;1.00;;;;;;5051497;28;20229;-70
2024/03/10 08:26:49;;;;;;;567.53;540.20;;;11.80;1.00;;;;;;5052064;28;20421;-68
2024/03/10 08:29:15;;;;;;;599.33;569.77;;;12.00;1.00;;;;;;5051835;28;20500;-69
2024/03/10 08:31:41;;;;;;;717.10;677.03;;;12.20;1.00;;;;;;5052032;28;20405;-69
2024/03/10 08:34:08;;;;;;;569.97;541.80;;;12.40;1.00;;;;;;5051699;28;20770;-70
2024/03/10 08:36:35;;;;;;;560.03;533.33;;;12.50;1.00;;;;;;5052258;28;20511;-69
2024/03/10 08:39:07;;;;;;;540.87;514.83;;;12.70;1.00;;;;;;5051896;28;20447;-69
2024/03/10 08:41:32;;;;;;;486.47;463.00;;;12.80;1.00;;;;;;5052046;28;21089;-69
2024/03/10 08:44:00;;;;;;;482.20;458.77;;;12.90;1.00;;;;;;5052038;28;20405;-69
2024/03/10 08:46:26;;;;;;;496.33;472.23;;;12.90;1.00;;;;;;5052154;28;20169;-69
2024/03/10 08:48:51;;;;;;;474.33;451.27;;;12.90;1.00;;;;;;5051810;28;20507;-69
2024/03/10 08:51:18;;;;;;;596.20;567.57;;;13.10;1.00;;;;;;5033725;28;20218;-69
2024/03/10 08:53:44;;;;;;;455.20;433.20;;;13.10;1.00;;;;;;5051242;28;20229;-69
2024/03/10 08:56:09;;;;;;;446.27;424.70;;;13.20;1.00;;;;;;5051407;28;20420;-69
2024/03/10 08:58:35;;;;;;;429.83;409.13;;;13.20;1.00;;;;;;5051616;28;20207;-69
2024/03/10 09:01:03;;;;;;;445.97;424.57;;;13.30;1.00;;;;;;5051660;28;20230;-69
2024/03/10 09:03:29;;;;;;;410.53;390.47;;;13.40;1.00;;;;;;5051359;28;20171;-69
2024/03/10 09:05:55;;;;;;;403.27;383.47;;;13.60;1.00;;;;;;5051477;28;20409;-69
2024/03/10 09:08:21;;;;;;;494.43;471.07;;;13.70;1.00;;;;;;5051557;28;20262;-69
2024/03/10 09:10:47;;;;;;;422.63;402.33;;;13.90;1.00;;;;;;5051480;28;20406;-70
2024/03/10 09:13:13;;;;;;;412.57;392.70;;;14.00;1.00;;;;;;5053345;28;20182;-69
2024/03/10 09:15:39;;;;;;;385.37;366.03;;;14.10;1.00;;;;;;5055065;28;20241;-69
2024/03/10 09:18:05;;;;;;;404.73;385.40;;;14.20;1.00;;;;;;5055027;28;20445;-69
2024/03/10 09:20:31;;;;;;;393.23;374.17;;;14.30;1.00;;;;;;5054999;28;20458;-69
2024/03/10 09:22:57;;;;;;;329.27;312.50;;;14.40;1.00;;;;;;5054773;28;20398;-69
2024/03/10 09:25:23;;;;;;;537.83;511.37;;;14.30;1.00;;;;;;5054780;28;20654;-70
2024/03/10 09:27:51;;;;;;;341.23;323.97;;;14.30;1.00;;;;;;5054979;28;20396;-69
2024/03/10 09:30:21;;;;;;;352.73;334.70;;;14.30;1.00;;;;;;5054967;28;20309;-69
2024/03/10 09:32:50;;;;;;;329.87;313.00;;;14.40;1.00;;;;;;5055124;28;20776;-69
2024/03/10 09:35:28;;;;;;;308.80;292.70;;;14.60;1.00;;;;;;5054548;28;20417;-68
2024/03/10 09:38:00;;;;;;;532.60;505.63;;;14.70;1.00;;;;;;5054845;28;20502;-69
2024/03/10 09:40:28;;;;;;;314.63;298.30;;;14.80;1.00;;;;;;5054585;28;20454;-69
2024/03/10 09:42:55;;;;;;;336.83;319.87;;;14.70;1.00;;;;;;5054524;28;20459;-69
2024/03/10 09:45:21;;;;;;;344.33;326.77;;;14.70;1.00;;;;;;5054220;28;20413;-69
2024/03/10 09:47:49;;;;;;;356.07;338.30;;;14.80;1.00;;;;;;5054565;28;20405;-69
2024/03/10 09:50:22;;;;;;;301.27;285.50;;;14.80;1.00;;;;;;5054323;28;20489;-69
2024/03/10 09:52:53;;;;;;;344.67;327.17;;;14.80;1.00;;;;;;5054736;28;20419;-69
2024/03/10 09:55:20;;;;;;;333.53;316.23;;;15.00;1.00;;;;;;5054243;28;20400;-69
2024/03/10 09:57:54;;;;;;;289.77;274.27;;;15.00;1.00;;;;;;5054517;28;20417;-69
2024/03/10 10:00:23;;;;;;;255.57;241.00;;;15.10;1.00;;;;;;5054510;28;20463;-69
2024/03/10 10:02:58;;;;;;;280.50;265.23;;;15.20;1.00;;;;;;5054413;28;20405;-70
2024/03/10 10:05:29;;;;;;;262.70;248.07;;;15.30;1.00;;;;;;5053942;28;20397;-69
2024/03/10 10:07:55;;;;;;;270.50;255.67;;;15.50;1.00;;;;;;5054433;28;20413;-69
2024/03/10 10:10:21;;;;;;;273.70;258.43;;;15.60;1.00;;;;;;5054044;28;20434;-70
2024/03/10 10:12:49;;;;;;;282.23;266.43;;;15.60;1.00;;;;;;5054032;28;20489;-69
2024/03/10 10:15:17;;;;;;;269.80;254.70;;;15.80;1.00;;;;;;5053763;28;20182;-69
2024/03/10 10:17:53;;;;;;;270.07;255.07;;;15.90;1.00;;;;;;5067966;28;20447;-69
2024/03/10 10:20:28;;;;;;;274.10;258.83;;;16.10;1.00;;;;;;5073427;28;20458;-69
2024/03/10 10:22:55;;;;;;;254.70;239.20;;;16.00;1.00;;;;;;5073515;28;20392;-71
2024/03/10 10:25:24;;;;;;;339.33;321.23;;;16.10;1.00;;;;;;5072854;28;20480;-69
2024/03/10 10:27:51;;;;;;;205.33;192.30;;;16.10;1.00;;;;;;5073420;28;20409;-70
2024/03/10 10:30:22;;;;;;;233.57;219.83;;;16.10;1.00;;;;;;5073846;28;20429;-69
2024/03/10 10:32:49;;;;;;;219.63;205.83;;;16.10;1.00;;;;;;5055657;28;20833;-67
2024/03/10 10:35:16;;;;;;;279.33;264.10;;;16.20;1.00;;;;;;5072946;28;20915;-67
2024/03/10 10:37:45;;;;;;;226.03;212.53;;;16.20;1.00;;;;;;5073153;28;20502;-67
2024/03/10 10:40:11;;;;;;;285.00;269.20;;;16.10;1.00;;;;;;5069265;28;20456;-68
2024/03/10 10:42:38;;;;;;;219.77;206.40;;;16.20;1.00;;;;;;5073049;28;20401;-68
2024/03/10 10:45:08;;;;;;;364.00;345.57;;;16.10;1.00;;;;;;5072657;28;20411;-68
2024/03/10 10:47:34;;;;;;;192.77;180.07;;;16.10;1.00;;;;;;5072460;28;20389;-67
2024/03/10 10:50:00;;;;;;;216.63;203.20;;;16.00;1.00;;;;;;5072191;28;20441;-67
2024/03/10 10:52:25;;;;;;;195.63;182.93;;;15.70;1.00;;;;;;5054792;28;20412;-68
2024/03/10 10:54:51;;;;;;;311.37;293.60;;;15.80;1.00;;;;;;5072159;28;20787;-67
2024/03/10 10:57:18;;;;;;;292.97;277.00;;;15.80;1.00;;;;;;5072711;28;20168;-67
2024/03/10 10:59:48;;;;;;;348.17;329.83;;;15.80;1.00;;;;;;5046622;28;20210;-67
2024/03/10 11:02:19;;;;;;;190.27;177.67;;;15.80;1.00;;;;;;5051070;28;20502;-67
2024/03/10 11:04:46;;;;;;;174.47;162.47;;;15.80;1.00;;;;;;5051984;28;20410;-67
2024/03/10 11:07:15;;;;;;;177.70;165.53;;;15.80;1.00;;;;;;5052433;28;20407;-67
2024/03/10 11:09:41;;;;;;;210.87;197.43;;;15.90;1.00;;;;;;5052044;28;20465;-68
2024/03/10 11:12:18;;;;;;;191.93;179.20;;;16.10;1.00;;;;;;5052306;28;20436;-67
2024/03/10 11:14:47;;;;;;;316.70;299.50;;;16.30;1.00;;;;;;5052201;28;20171;-68
2024/03/10 11:17:15;;;;;;;271.77;256.97;;;16.60;1.00;;;;;;5052269;28;20410;-68
2024/03/10 11:19:47;;;;;;;227.03;213.57;;;16.80;1.00;;;;;;5052119;28;20508;-68
2024/03/10 11:22:12;;;;;;;306.20;289.33;;;17.10;1.00;;;;;;5052560;28;20390;-68
2024/03/10 11:24:39;;;;;;;223.97;210.57;;;17.50;1.00;;;;;;5051512;28;20488;-68
2024/03/10 11:27:18;;;;;;;222.97;209.57;;;17.80;1.00;;;;;;5052272;28;20259;-68
2024/03/10 11:29:44;;;;;;;175.43;163.07;;;18.00;1.00;;;;;;5052072;28;20420;-68
2024/03/10 11:32:31;;;;;;;638.60;604.30;;;17.90;1.00;;;;;;5052089;28;20403;-67
2024/03/10 11:35:00;;;;;;;209.57;196.60;;;17.70;1.00;;;;;;5051704;28;20597;-68
2024/03/10 11:37:26;;;;;;;201.20;188.00;;;17.70;1.00;;;;;;5050998;28;20398;-68
2024/03/10 11:39:51;;;;;;;233.43;219.87;;;17.60;1.00;;;;;;5051276;28;20433;-68
2024/03/10 11:42:18;;;;;;;207.83;194.27;;;17.70;1.00;;;;;;5051892;28;20173;-68
2024/03/10 11:44:46;;;;;;;159.47;147.90;;;17.80;1.00;;;;;;5051635;28;20179;-68
2024/03/10 11:47:11;;;;;;;154.10;142.80;;;17.90;1.00;;;;;;5051284;28;20417;-68
2024/03/10 11:49:37;;;;;;;144.37;133.13;;;18.00;1.00;;;;;;5051693;28;20421;-68
2024/03/10 11:52:06;;;;;;;104.87;94.87;;;18.20;1.00;;;;;;5051932;28;20756;-68
2024/03/10 11:54:32;;;;;;;98.27;88.67;;;18.50;1.00;;;;;;5051149;28;21203;-67
2024/03/10 11:56:59;;;;;;;99.23;89.47;;;18.50;1.00;;;;;;5052077;28;20494;-68
2024/03/10 11:59:25;;;;;;;109.43;99.27;;;18.50;1.00;;;;;;5051342;28;20348;-68
2024/03/10 12:01:51;;;;;;;100.63;90.80;;;18.30;1.00;;;;;;5051188;28;20822;-68
2024/03/10 12:04:16;;;;;;;94.20;84.63;;;18.30;1.00;;;;;;5051390;28;20398;-68
2024/03/10 12:06:43;;;;;;;165.53;153.47;;;18.40;1.00;;;;;;5051585;28;20166;-67
2024/03/10 12:09:20;;;;;;;121.80;111.40;;;18.60;1.00;;;;;;5051168;28;20203;-68
2024/03/10 12:11:46;;;;;;;342.20;323.87;;;18.80;1.00;;;;;;5051450;28;20409;-68
2024/03/10 12:14:11;;;;;;;141.73;130.60;;;19.20;1.00;;;;;;5051233;28;20415;-68
2024/03/10 12:16:38;;;;;;;109.63;99.60;;;19.50;1.00;;;;;;5050951;28;20716;-68
2024/03/10 12:19:04;;;;;;;85.60;74.83;;;19.50;1.00;;;;;;5051449;28;20279;-68
2024/03/10 12:21:30;;;;;;;115.77;105.40;;;19.70;1.00;;;;;;5051331;28;20493;-68
2024/03/10 12:23:58;;;;;;;228.60;212.70;;;19.40;1.00;;;;;;5050847;28;20854;-68
2024/03/10 12:26:24;;;;;;;94.33;84.60;;;19.70;1.00;;;;;;5051336;28;20666;-68
2024/03/10 12:28:50;;;;;;;93.50;83.83;;;19.70;1.00;;;;;;5051383;28;20517;-68
2024/03/10 12:31:17;;;;;;;87.10;72.47;;;19.50;1.00;;;;;;5050794;28;20477;-68
2024/03/10 12:33:49;;;;;;;85.60;73.20;;;19.30;1.00;;;;;;5051047;28;20193;-68
2024/03/10 12:36:16;;;;;;;518.27;489.20;;;19.40;1.00;;;;;;5051324;28;20989;-68
2024/03/10 12:38:43;;;;;;;90.03;80.43;;;19.50;1.00;;;;;;5050853;28;20446;-68
2024/03/10 12:41:12;;;;;;;85.10;71.50;;;19.50;1.00;;;;;;5051036;28;20553;-68